sensor_id;sensor_type;location;lat;lon;timestamp;temperature;humidity
5828;DHT22;42583;50.240;8.444;2023-11-19T00:04:10;6.80;99.90
5828;DHT22;42583;50.240;8.444;2023-11-19T00:19:11;6.90;99.90
5828;DHT22;42583;50.240;8.444;2023-11-19T00:34:12;7.10;99.90
5828;DHT22;42583;50.240;8.444;2023-11-19T00:49:12;7.20;99.90
5828;DHT22;42583;50.240;8.444;2023-11-19T01:04:13;7.10;99.90
5828;DHT22;42583;50.240;8.444;2023-11-19T01:19:14;7.10;99.90
5828;DHT22;42583;50.240;8.444;2023-11-19T01:34:14;7.20;99.90
5828;DHT22;42583;50.240;8.444;2023-11-19T01:49:15;7.30;99.90
5828;DHT22;42583;50.240;8.444;2023-11-19T02:04:18;7.30;99.90
5828;DHT22;42583;50.240;8.444;2023-11-19T02:19:19;7.20;99.90
5828;DHT22;42583;50.240;8.444;2023-11-19T02:34:20;7.30;99.90
5828;DHT22;42583;50.240;8.444;2023-11-19T02:49:22;7.50;99.90
5828;DHT22;42583;50.240;8.444;2023-11-19T03:04:22;7.60;99.90
5828;DHT22;42583;50.240;8.444;2023-11-19T03:19:23;7.50;99.90
5828;DHT22;42583;50.240;8.444;2023-11-19T03:34:24;7.60;99.90
5828;DHT22;42583;50.240;8.444;2023-11-19T03:49:24;7.80;99.90
5828;DHT22;42583;50.240;8.444;2023-11-19T04:04:25;8.00;99.90
5828;DHT22;42583;50.240;8.444;2023-11-19T04:19:25;8.20;99.90
5828;DHT22;42583;50.240;8.444;2023-11-19T04:34:26;8.50;99.90
5828;DHT22;42583;50.240;8.444;2023-11-19T04:49:26;8.80;99.90
5828;DHT22;42583;50.240;8.444;2023-11-19T05:04:27;8.90;99.90
5828;DHT22;42583;50.240;8.444;2023-11-19T05:19:27;9.00;99.90
5828;DHT22;42583;50.240;8.444;2023-11-19T05:34:28;9.20;99.90
5828;DHT22;42583;50.240;8.444;2023-11-19T05:49:29;9.20;99.90
5828;DHT22;42583;50.240;8.444;2023-11-19T06:04:29;9.30;99.90
5828;DHT22;42583;50.240;8.444;2023-11-19T06:19:30;9.50;99.90
5828;DHT22;42583;50.240;8.444;2023-11-19T06:34:31;9.60;99.90
5828;DHT22;42583;50.240;8.444;2023-11-19T06:49:33;9.60;99.90
5828;DHT22;42583;50.240;8.444;2023-11-19T07:04:34;9.80;99.90
5828;DHT22;42583;50.240;8.444;2023-11-19T07:19:35;9.70;99.90
5828;DHT22;42583;50.240;8.444;2023-11-19T07:34:38;9.70;99.90
5828;DHT22;42583;50.240;8.444;2023-11-19T07:49:38;9.70;99.90
5828;DHT22;42583;50.240;8.444;2023-11-19T08:04:39;9.80;99.90
5828;DHT22;42583;50.240;8.444;2023-11-19T08:19:45;9.80;99.90
5828;DHT22;42583;50.240;8.444;2023-11-19T08:34:45;9.80;99.90
5828;DHT22;42583;50.240;8.444;2023-11-19T08:49:46;9.90;99.90
5828;DHT22;42583;50.240;8.444;2023-11-19T09:04:46;10.10;99.90
5828;DHT22;42583;50.240;8.444;2023-11-19T09:19:47;10.70;99.90
5828;DHT22;42583;50.240;8.444;2023-11-19T09:34:47;11.40;99.90
5828;DHT22;42583;50.240;8.444;2023-11-19T09:49:49;11.90;99.90
5828;DHT22;42583;50.240;8.444;2023-11-19T10:04:51;13.80;99.90
5828;DHT22;42583;50.240;8.444;2023-11-19T10:19:53;15.80;99.90
5828;DHT22;42583;50.240;8.444;2023-11-19T10:35:05;14.60;95.50
5828;DHT22;42583;50.240;8.444;2023-11-19T10:50:07;14.20;95.80
5828;DHT22;42583;50.240;8.444;2023-11-19T11:05:08;13.60;95.60
5828;DHT22;42583;50.240;8.444;2023-11-19T11:20:10;12.50;96.10
5828;DHT22;42583;50.240;8.444;2023-11-19T11:50:54;13.80;96.20
5828;DHT22;42583;50.240;8.444;2023-11-19T12:05:55;15.20;91.50
5828;DHT22;42583;50.240;8.444;2023-11-19T12:20:57;13.70;92.50
5828;DHT22;42583;50.240;8.444;2023-11-19T12:36:00;12.90;92.90
5828;DHT22;42583;50.240;8.444;2023-11-19T12:51:05;12.40;92.80
5828;DHT22;42583;50.240;8.444;2023-11-19T13:06:12;12.30;94.50
5828;DHT22;42583;50.240;8.444;2023-11-19T13:21:12;11.90;94.80
5828;DHT22;42583;50.240;8.444;2023-11-19T13:36:13;11.60;95.80
5828;DHT22;42583;50.240;8.444;2023-11-19T13:51:14;12.10;95.40
5828;DHT22;42583;50.240;8.444;2023-11-19T14:06:15;12.20;93.00
5828;DHT22;42583;50.240;8.444;2023-11-19T14:21:15;14.40;90.30
5828;DHT22;42583;50.240;8.444;2023-11-19T14:36:16;16.00;77.60
5828;DHT22;42583;50.240;8.444;2023-11-19T14:51:16;15.60;79.00
5828;DHT22;42583;50.240;8.444;2023-11-19T15:06:17;15.30;73.90
5828;DHT22;42583;50.240;8.444;2023-11-19T15:21:18;14.20;76.20
5828;DHT22;42583;50.240;8.444;2023-11-19T15:36:19;12.60;80.60
5828;DHT22;42583;50.240;8.444;2023-11-19T15:51:19;11.60;86.80
5828;DHT22;42583;50.240;8.444;2023-11-19T16:06:20;11.00;90.90
5828;DHT22;42583;50.240;8.444;2023-11-19T16:21:20;10.70;92.80
5828;DHT22;42583;50.240;8.444;2023-11-19T16:36:21;10.50;94.20
5828;DHT22;42583;50.240;8.444;2023-11-19T16:51:22;10.30;95.50
5828;DHT22;42583;50.240;8.444;2023-11-19T17:06:23;10.10;96.60
5828;DHT22;42583;50.240;8.444;2023-11-19T17:21:24;10.00;97.20
5828;DHT22;42583;50.240;8.444;2023-11-19T17:36:34;9.80;98.50
5828;DHT22;42583;50.240;8.444;2023-11-19T17:51:34;9.60;98.90
5828;DHT22;42583;50.240;8.444;2023-11-19T18:06:35;9.40;99.30
5828;DHT22;42583;50.240;8.444;2023-11-19T18:21:37;9.20;99.00
5828;DHT22;42583;50.240;8.444;2023-11-19T18:36:39;8.90;99.30
5828;DHT22;42583;50.240;8.444;2023-11-19T18:51:40;8.90;99.90
5828;DHT22;42583;50.240;8.444;2023-11-19T19:06:40;8.80;99.90
5828;DHT22;42583;50.240;8.444;2023-11-19T19:21:46;8.90;99.90
5828;DHT22;42583;50.240;8.444;2023-11-19T19:36:46;9.10;99.90
5828;DHT22;42583;50.240;8.444;2023-11-19T19:51:47;9.10;99.90
5828;DHT22;42583;50.240;8.444;2023-11-19T20:06:47;9.20;99.90
5828;DHT22;42583;50.240;8.444;2023-11-19T20:21:48;9.20;99.90
5828;DHT22;42583;50.240;8.444;2023-11-19T20:52:46;9.10;99.90
5828;DHT22;42583;50.240;8.444;2023-11-19T21:07:46;9.00;99.90
5828;DHT22;42583;50.240;8.444;2023-11-19T21:22:47;9.10;99.90
5828;DHT22;42583;50.240;8.444;2023-11-19T21:37:48;9.20;99.90
5828;DHT22;42583;50.240;8.444;2023-11-19T21:52:48;9.30;99.90
5828;DHT22;42583;50.240;8.444;2023-11-19T22:07:50;9.40;99.90
5828;DHT22;42583;50.240;8.444;2023-11-19T22:22:50;9.40;99.90
5828;DHT22;42583;50.240;8.444;2023-11-19T22:37:51;9.40;99.90
5828;DHT22;42583;50.240;8.444;2023-11-19T22:52:52;9.40;99.90
5828;DHT22;42583;50.240;8.444;2023-11-19T23:07:52;9.40;99.90
5828;DHT22;42583;50.240;8.444;2023-11-19T23:22:53;9.40;99.90
5828;DHT22;42583;50.240;8.444;2023-11-19T23:37:54;9.40;99.90
5828;DHT22;42583;50.240;8.444;2023-11-19T23:52:54;9.40;99.90
